Aérodrome :
LOGIN :

S'inscrire | Disclaimer

   EN    FR    IT 

 










Légende :    VFR   VFR Marginal   IFR   IFR Intensif   IFR Très Intensif
Visi : 
Plafond : 
>= 8 km
>= 3000ft
5 à 8 km
1000 à 3000 ft
1500m à 5 km
500 à 1000 ft
800 à 1500m
200 à 500 ft
< 800m
< 200 ft
Symboles :   Orages  Brouillard  Fortes neiges  Fortes précipitations  Vent > 20 kt
SIGMETs :   Divers  Orages  Givrage  Turbulence  Onde Orograph.  Cendres Volcan.






- Altitude de l'aérodrome : 604 ft
- Code IATA : LCJ


EPLL - Lodz

DERNIER METAR :
  • 171800Z 11005KT 070V140 2600 BR BKN004 01/00 Q1021

METARs EXPIRÉS :
  • 171730Z 12005KT 080V160 3600 BR BKN005 01/00 Q1022
  • 171700Z 14006KT 090V170 4900 BR BKN005 01/00 Q1022
  • 171630Z 12007KT 080V160 5000 BR BKN006 01/00 Q1022
  • 171600Z 14006KT 090V170 6000 BKN008 01/01 Q1022
  • 171530Z 15007KT 100V180 7000 SCT007 01/01 Q1023

TAF TAF EPLL
Valide du 17 à 18h jusqu'au 18 à 18h UTC


171730Z 1718/1818 15006KT 7000 OVC006
PROB40
TEMPO 1800/1806 3000 BR BKN003
BECMG 1802/1804 21010KT
BECMG 1807/1810 -RA BKN014
PROB40
TEMPO 1808/1818 4000 BR BKN009
BECMG 1815/1818 VRB02KT



MET'MAP, la Météo Aéronautique d'un coup d'oeil ! - Copyright ORBIFLY Décembre 2007 - Disclaimer

ORBIFLY MET'MAP TEAM :

Programmation & Développement : Alexandra Zaïnal
Sur une idée originale de : Baudouin d'Aumeries
Assistance à la programmation : Marc-Olivier Méhu
Soutien technique & logistique : Manuel Goepfert

Contact : metmap@orbifly.com




SOURCES & CREDITS :

   NOAA